Time;durP1;ratioP1;P1;durP2;ratioP2;P2;SDS_P1;SDS_P2;PMS_P1;PMS_P2;Temp;Humidity;BMP_temperature;BMP_pressure;BME280_temperature;BME280_humidity;BME280_pressure;Samples;Min_cycle;Max_cycle;Signal;HPM_P1;HPM_P2
2023/05/16 00:00:16;;;;;;;15.90;11.00;;;;;;;;;;4947311;29;20213;-73
2023/05/16 00:02:42;;;;;;;13.77;11.25;;;;;;;;;;4947642;29;20193;-74
2023/05/16 00:05:15;;;;;;;20.40;12.53;;;;;;;;;;4930281;29;20177;-74
2023/05/16 00:07:44;;;;;;;17.23;11.52;;;;;;;;;;4947332;29;20492;-74
2023/05/16 00:10:11;;;;;;;15.57;10.10;;;;;;;;;;4947115;29;20193;-73
2023/05/16 00:12:38;;;;;;;15.60;11.35;;;;;;;;;;4946826;29;20248;-74
2023/05/16 00:15:05;;;;;;;13.45;10.50;;;;;;;;;;4947151;29;20182;-74
2023/05/16 00:17:31;;;;;;;15.48;10.57;;;;;;;;;;4947124;29;20192;-74
2023/05/16 00:19:57;;;;;;;16.25;11.23;;;;;;;;;;4946317;29;20224;-74
2023/05/16 00:22:26;;;;;;;16.15;11.55;;;;;;;;;;4946948;29;20225;-75
2023/05/16 00:24:52;;;;;;;13.20;10.82;;;;;;;;;;4946001;29;20177;-76
2023/05/16 00:27:18;;;;;;;18.50;10.07;;;;;;;;;;4945982;29;20185;-75
2023/05/16 00:29:45;;;;;;;16.75;9.95;;;;;;;;;;4946557;29;20193;-75
2023/05/16 00:32:11;;;;;;;13.60;10.85;;;;;;;;;;4946856;29;20181;-75
2023/05/16 00:34:37;;;;;;;23.57;10.73;;;;;;;;;;4947086;29;20646;-75
2023/05/16 00:37:03;;;;;;;13.07;9.07;;;;;;;;;;4946973;29;20429;-75
2023/05/16 00:39:29;;;;;;;13.20;10.03;;;;;;;;;;4945998;29;20263;-75
2023/05/16 00:41:56;;;;;;;15.32;9.90;;;;;;;;;;4946406;29;20512;-75
2023/05/16 00:44:22;;;;;;;12.50;9.70;;;;;;;;;;4946340;29;20221;-75
2023/05/16 00:46:48;;;;;;;16.10;9.82;;;;;;;;;;4945866;29;20185;-75
2023/05/16 00:49:14;;;;;;;14.67;9.03;;;;;;;;;;4945954;29;20638;-75
2023/05/16 00:51:40;;;;;;;13.55;8.50;;;;;;;;;;4944035;29;21041;-75
2023/05/16 00:54:06;;;;;;;9.93;7.72;;;;;;;;;;4943004;29;20216;-75
2023/05/16 00:56:33;;;;;;;14.15;6.93;;;;;;;;;;4943101;29;20249;-76
2023/05/16 00:58:59;;;;;;;12.95;6.57;;;;;;;;;;4942658;29;20208;-76
2023/05/16 01:01:27;;;;;;;7.10;5.97;;;;;;;;;;4943020;29;20205;-76
2023/05/16 01:03:53;;;;;;;8.52;4.70;;;;;;;;;;4942763;29;20177;-76
2023/05/16 01:06:19;;;;;;;6.22;4.45;;;;;;;;;;4942767;29;20362;-76
2023/05/16 01:08:45;;;;;;;5.05;4.55;;;;;;;;;;4942748;29;20181;-75
2023/05/16 01:11:33;;;;;;;6.30;5.22;;;;;;;;;;4942846;29;20642;-75
2023/05/16 01:14:05;;;;;;;6.47;5.85;;;;;;;;;;4942602;29;20178;-75
2023/05/16 01:16:51;;;;;;;8.07;6.35;;;;;;;;;;4943045;29;20221;-75
2023/05/16 01:19:17;;;;;;;11.95;7.13;;;;;;;;;;4943046;29;20268;-75
2023/05/16 01:21:56;;;;;;;10.30;7.03;;;;;;;;;;4943116;29;20173;-75
2023/05/16 01:24:27;;;;;;;15.00;9.18;;;;;;;;;;4942935;29;20177;-75
2023/05/16 01:26:53;;;;;;;11.63;7.72;;;;;;;;;;4942107;29;20174;-75
2023/05/16 01:29:19;;;;;;;15.68;9.18;;;;;;;;;;4942669;29;20193;-76
2023/05/16 01:31:46;;;;;;;16.30;10.02;;;;;;;;;;4941908;29;20178;-75
2023/05/16 01:34:12;;;;;;;12.43;9.23;;;;;;;;;;4942845;29;20189;-75
2023/05/16 01:36:48;;;;;;;13.93;8.82;;;;;;;;;;4943145;29;20589;-75
2023/05/16 01:39:21;;;;;;;11.95;8.27;;;;;;;;;;4942967;29;20274;-75
2023/05/16 01:41:50;;;;;;;13.43;8.52;;;;;;;;;;4942421;29;20662;-75
2023/05/16 01:44:30;;;;;;;8.43;7.60;;;;;;;;;;4942332;29;20186;-75
2023/05/16 01:46:58;;;;;;;7.70;5.85;;;;;;;;;;4942800;29;20174;-75
2023/05/16 01:49:30;;;;;;;11.35;6.93;;;;;;;;;;4943057;29;20208;-75
2023/05/16 01:52:00;;;;;;;9.02;6.05;;;;;;;;;;4942090;29;20232;-75
2023/05/16 01:54:29;;;;;;;11.65;4.88;;;;;;;;;;4942039;29;20181;-75
2023/05/16 01:56:55;;;;;;;10.30;6.50;;;;;;;;;;4941972;29;20180;-75
2023/05/16 01:59:23;;;;;;;10.25;6.25;;;;;;;;;;4942150;29;20292;-76
2023/05/16 02:01:49;;;;;;;7.68;6.25;;;;;;;;;;4942179;29;20189;-76
2023/05/16 02:04:15;;;;;;;15.30;7.07;;;;;;;;;;4940894;29;20192;-75
2023/05/16 02:06:41;;;;;;;10.18;8.55;;;;;;;;;;4941038;29;20654;-76
2023/05/16 02:09:08;;;;;;;10.88;6.78;;;;;;;;;;4942270;29;20205;-75
2023/05/16 02:11:34;;;;;;;16.17;7.93;;;;;;;;;;4942760;29;20288;-75
2023/05/16 02:14:00;;;;;;;20.77;9.70;;;;;;;;;;4942677;29;20255;-75
2023/05/16 02:16:26;;;;;;;14.00;8.77;;;;;;;;;;4942104;29;20554;-75
2023/05/16 02:18:52;;;;;;;12.10;9.07;;;;;;;;;;4941951;29;20473;-75
2023/05/16 02:21:18;;;;;;;20.03;9.00;;;;;;;;;;4942402;29;20212;-74
2023/05/16 02:23:44;;;;;;;19.45;9.20;;;;;;;;;;4941597;29;20817;-75
2023/05/16 02:26:10;;;;;;;17.45;9.68;;;;;;;;;;4924982;29;20253;-75
2023/05/16 02:28:36;;;;;;;23.70;9.25;;;;;;;;;;4941951;29;20233;-75
2023/05/16 02:31:02;;;;;;;22.30;9.90;;;;;;;;;;4941537;29;20686;-75
2023/05/16 02:33:28;;;;;;;16.50;9.63;;;;;;;;;;4941663;29;20460;-74
2023/05/16 02:35:54;;;;;;;19.13;9.20;;;;;;;;;;4942022;29;20173;-75
2023/05/16 02:38:20;;;;;;;16.70;9.05;;;;;;;;;;4941570;29;20205;-75
2023/05/16 02:40:47;;;;;;;24.60;9.70;;;;;;;;;;4941514;29;20188;-75
2023/05/16 02:43:13;;;;;;;12.63;7.05;;;;;;;;;;4941856;29;20540;-74
2023/05/16 02:45:39;;;;;;;21.65;8.40;;;;;;;;;;4942658;29;20185;-74
2023/05/16 02:48:05;;;;;;;18.33;9.55;;;;;;;;;;4941744;29;20181;-74
2023/05/16 02:50:32;;;;;;;18.52;8.95;;;;;;;;;;4941754;29;20229;-74
2023/05/16 02:53:01;;;;;;;17.98;7.32;;;;;;;;;;4941228;29;20197;-74
2023/05/16 02:55:27;;;;;;;21.80;7.63;;;;;;;;;;4942255;29;20206;-74
2023/05/16 02:57:53;;;;;;;17.65;8.20;;;;;;;;;;4942308;29;20182;-74
2023/05/16 03:00:19;;;;;;;19.43;7.47;;;;;;;;;;4942228;29;20209;-74
2023/05/16 03:02:45;;;;;;;12.13;7.15;;;;;;;;;;4942351;29;20953;-74
2023/05/16 03:05:11;;;;;;;24.13;8.65;;;;;;;;;;4924568;29;20196;-74
2023/05/16 03:07:38;;;;;;;14.57;6.13;;;;;;;;;;4941634;29;20756;-74
2023/05/16 03:10:04;;;;;;;16.38;7.38;;;;;;;;;;4941868;29;20329;-74
2023/05/16 03:12:30;;;;;;;22.77;7.32;;;;;;;;;;4942219;29;20188;-74
2023/05/16 03:14:56;;;;;;;19.83;7.33;;;;;;;;;;4941696;29;20177;-74
2023/05/16 03:17:22;;;;;;;26.33;7.68;;;;;;;;;;4941567;29;20840;-74
2023/05/16 03:19:49;;;;;;;27.13;9.70;;;;;;;;;;4942026;29;20268;-74
2023/05/16 03:22:15;;;;;;;18.27;8.90;;;;;;;;;;4942460;29;20465;-74
2023/05/16 03:24:41;;;;;;;26.10;8.53;;;;;;;;;;4942195;29;20177;-74
2023/05/16 03:27:07;;;;;;;21.43;8.27;;;;;;;;;;4941179;29;20416;-74
2023/05/16 03:29:33;;;;;;;25.45;8.77;;;;;;;;;;4924645;29;20417;-74
2023/05/16 03:31:59;;;;;;;18.50;8.77;;;;;;;;;;4941863;29;20688;-74
2023/05/16 03:34:25;;;;;;;30.17;10.83;;;;;;;;;;4941701;29;20182;-74
2023/05/16 03:36:52;;;;;;;28.03;9.47;;;;;;;;;;4941685;29;20417;-74
2023/05/16 03:39:18;;;;;;;28.10;11.02;;;;;;;;;;4941566;29;21013;-73
2023/05/16 03:41:44;;;;;;;23.07;10.00;;;;;;;;;;4941701;29;20192;-74
2023/05/16 03:44:10;;;;;;;24.85;10.60;;;;;;;;;;4941532;29;20413;-74
2023/05/16 03:46:36;;;;;;;19.83;9.80;;;;;;;;;;4941575;29;20197;-74
2023/05/16 03:49:02;;;;;;;28.38;9.02;;;;;;;;;;4941134;29;20444;-73
2023/05/16 03:51:29;;;;;;;19.77;8.57;;;;;;;;;;4941779;29;20233;-73
2023/05/16 03:53:55;;;;;;;25.42;10.02;;;;;;;;;;4941083;29;20181;-74
2023/05/16 03:56:21;;;;;;;20.27;9.03;;;;;;;;;;4940664;29;20174;-74
2023/05/16 03:58:47;;;;;;;24.90;9.70;;;;;;;;;;4939151;29;20465;-77
2023/05/16 04:01:14;;;;;;;21.20;8.75;;;;;;;;;;4940977;29;20209;-74
2023/05/16 04:03:40;;;;;;;22.42;9.20;;;;;;;;;;4941537;29;20176;-74
2023/05/16 04:06:06;;;;;;;27.25;9.20;;;;;;;;;;4941347;29;20182;-74
2023/05/16 04:08:32;;;;;;;25.05;10.73;;;;;;;;;;4941675;29;20192;-73
2023/05/16 04:10:58;;;;;;;22.90;9.87;;;;;;;;;;4941195;29;20299;-73
2023/05/16 04:13:25;;;;;;;21.47;7.80;;;;;;;;;;4941183;29;20752;-73
2023/05/16 04:15:50;;;;;;;21.60;9.25;;;;;;;;;;4941100;29;20413;-74
2023/05/16 04:18:16;;;;;;;25.20;10.10;;;;;;;;;;4941514;29;20189;-74
2023/05/16 04:20:43;;;;;;;22.07;7.83;;;;;;;;;;4940953;29;20453;-74
2023/05/16 04:23:12;;;;;;;17.27;7.25;;;;;;;;;;4940622;29;20927;-74
2023/05/16 04:25:38;;;;;;;27.55;6.63;;;;;;;;;;4941513;29;20241;-74
2023/05/16 04:28:05;;;;;;;30.52;8.27;;;;;;;;;;4942813;29;20174;-74
2023/05/16 04:30:31;;;;;;;19.38;7.32;;;;;;;;;;4944720;29;20656;-73
2023/05/16 04:32:58;;;;;;;24.25;8.65;;;;;;;;;;4944015;29;20174;-74
2023/05/16 04:35:24;;;;;;;16.00;7.00;;;;;;;;;;4945174;29;20178;-73
2023/05/16 04:37:50;;;;;;;25.50;8.10;;;;;;;;;;4944243;29;20190;-76
2023/05/16 04:40:16;;;;;;;25.23;6.60;;;;;;;;;;4944655;29;20224;-73
2023/05/16 04:42:42;;;;;;;23.40;6.97;;;;;;;;;;4945021;29;20189;-73
2023/05/16 04:45:10;;;;;;;27.83;6.27;;;;;;;;;;4944448;29;20553;-73
2023/05/16 04:47:36;;;;;;;16.48;4.93;;;;;;;;;;4944149;29;20808;-73
2023/05/16 04:50:03;;;;;;;21.13;5.22;;;;;;;;;;4943717;29;20245;-73
2023/05/16 04:52:29;;;;;;;13.30;4.05;;;;;;;;;;4944771;29;20241;-73
2023/05/16 04:54:55;;;;;;;20.05;5.32;;;;;;;;;;4944321;29;20178;-74
2023/05/16 04:57:21;;;;;;;11.27;4.95;;;;;;;;;;4944469;29;20189;-74
2023/05/16 04:59:47;;;;;;;14.13;3.95;;;;;;;;;;4943505;29;20674;-73
2023/05/16 05:02:13;;;;;;;15.83;4.23;;;;;;;;;;4944199;29;20224;-73
2023/05/16 05:04:39;;;;;;;13.60;4.50;;;;;;;;;;4944279;29;20768;-73
2023/05/16 05:07:05;;;;;;;15.05;3.35;;;;;;;;;;4943826;29;20772;-73
2023/05/16 05:09:31;;;;;;;18.27;4.70;;;;;;;;;;4943761;29;20189;-73
2023/05/16 05:11:57;;;;;;;18.15;3.83;;;;;;;;;;4943498;29;20406;-74
2023/05/16 05:14:23;;;;;;;15.40;3.40;;;;;;;;;;4943603;29;20680;-73
2023/05/16 05:16:49;;;;;;;8.45;3.47;;;;;;;;;;4942663;29;20413;-74
2023/05/16 05:19:15;;;;;;;22.75;4.38;;;;;;;;;;4941972;29;20244;-74
2023/05/16 05:21:41;;;;;;;14.70;4.05;;;;;;;;;;4942790;29;20183;-73
2023/05/16 05:24:07;;;;;;;16.13;4.68;;;;;;;;;;4942968;29;20186;-73
2023/05/16 05:26:33;;;;;;;13.37;4.10;;;;;;;;;;4943539;29;20181;-73
2023/05/16 05:28:59;;;;;;;13.48;3.45;;;;;;;;;;4943380;29;20509;-73
2023/05/16 05:31:25;;;;;;;16.60;4.93;;;;;;;;;;4942735;29;20205;-73
2023/05/16 05:33:51;;;;;;;28.83;4.93;;;;;;;;;;4943587;29;20454;-73
2023/05/16 05:36:17;;;;;;;23.67;4.23;;;;;;;;;;4942692;29;20425;-73
2023/05/16 05:38:43;;;;;;;15.50;4.87;;;;;;;;;;4943125;29;20449;-73
2023/05/16 05:41:10;;;;;;;13.10;4.03;;;;;;;;;;4943023;29;20413;-73
2023/05/16 05:43:36;;;;;;;16.77;4.30;;;;;;;;;;4942906;29;20413;-74
2023/05/16 05:46:02;;;;;;;17.25;5.25;;;;;;;;;;4943163;29;20264;-73
2023/05/16 05:48:29;;;;;;;14.38;4.68;;;;;;;;;;4943672;29;20187;-73
2023/05/16 05:50:55;;;;;;;19.45;5.00;;;;;;;;;;4942693;29;20227;-73
2023/05/16 05:53:21;;;;;;;22.38;4.90;;;;;;;;;;4941138;29;20193;-73
2023/05/16 05:55:47;;;;;;;14.13;3.83;;;;;;;;;;4942643;29;20638;-73
2023/05/16 05:58:13;;;;;;;15.27;4.07;;;;;;;;;;4942614;29;20193;-73
2023/05/16 06:00:39;;;;;;;15.65;4.35;;;;;;;;;;4942322;29;20532;-73
2023/05/16 06:03:05;;;;;;;31.75;5.13;;;;;;;;;;4942597;29;20212;-73
2023/05/16 06:05:31;;;;;;;11.67;2.90;;;;;;;;;;4942688;29;20181;-73
2023/05/16 06:07:57;;;;;;;18.10;4.00;;;;;;;;;;4942458;29;20473;-74
2023/05/16 06:10:23;;;;;;;17.10;5.70;;;;;;;;;;4943190;29;20412;-73
2023/05/16 06:12:49;;;;;;;10.07;3.37;;;;;;;;;;4942184;29;20401;-73
2023/05/16 06:15:15;;;;;;;10.90;3.38;;;;;;;;;;4942460;29;20425;-73
2023/05/16 06:17:41;;;;;;;13.63;3.63;;;;;;;;;;4942501;29;20174;-73
2023/05/16 06:20:08;;;;;;;15.77;4.53;;;;;;;;;;4942606;29;20297;-74
2023/05/16 06:22:34;;;;;;;16.98;4.13;;;;;;;;;;4942337;29;20413;-73
2023/05/16 06:25:00;;;;;;;12.10;3.28;;;;;;;;;;4941819;29;20657;-74
2023/05/16 06:27:26;;;;;;;11.85;3.90;;;;;;;;;;4942099;29;20176;-75
2023/05/16 06:29:52;;;;;;;18.42;4.20;;;;;;;;;;4942236;29;20177;-74
2023/05/16 06:32:18;;;;;;;8.57;4.05;;;;;;;;;;4941972;29;20528;-74
2023/05/16 06:34:44;;;;;;;18.27;4.43;;;;;;;;;;4942205;29;20188;-74
2023/05/16 06:37:10;;;;;;;15.10;4.17;;;;;;;;;;4942324;29;20469;-74
2023/05/16 06:39:36;;;;;;;9.50;3.40;;;;;;;;;;4941572;29;21032;-74
2023/05/16 06:42:02;;;;;;;18.00;3.13;;;;;;;;;;4941068;29;20414;-74
2023/05/16 06:44:28;;;;;;;13.45;2.97;;;;;;;;;;4942097;29;20449;-73
2023/05/16 06:46:54;;;;;;;15.57;3.63;;;;;;;;;;4941447;29;20181;-73
2023/05/16 06:49:20;;;;;;;7.13;3.30;;;;;;;;;;4941135;29;20692;-73
2023/05/16 06:51:46;;;;;;;15.57;4.35;;;;;;;;;;4941780;29;20469;-73
2023/05/16 06:54:12;;;;;;;13.30;3.20;;;;;;;;;;4941342;29;20189;-73
2023/05/16 06:56:38;;;;;;;15.27;3.67;;;;;;;;;;4940544;29;20410;-73
2023/05/16 06:59:04;;;;;;;12.63;3.77;;;;;;;;;;4941414;29;20232;-74
2023/05/16 07:01:30;;;;;;;8.80;2.70;;;;;;;;;;4941352;29;20909;-73
2023/05/16 07:03:56;;;;;;;12.80;2.50;;;;;;;;;;4941749;29;20186;-73
2023/05/16 07:06:22;;;;;;;11.03;3.10;;;;;;;;;;4941287;29;20755;-73
2023/05/16 07:08:48;;;;;;;7.00;2.17;;;;;;;;;;4940923;29;20422;-73
2023/05/16 07:11:14;;;;;;;12.80;3.10;;;;;;;;;;4941626;29;20402;-74
2023/05/16 07:13:40;;;;;;;12.35;2.50;;;;;;;;;;4941912;29;20893;-73
2023/05/16 07:16:07;;;;;;;8.27;2.70;;;;;;;;;;4941664;29;20268;-73
2023/05/16 07:18:33;;;;;;;12.07;2.67;;;;;;;;;;4941497;29;20987;-73
2023/05/16 07:20:59;;;;;;;18.73;3.22;;;;;;;;;;4940774;29;20245;-77
2023/05/16 07:23:25;;;;;;;5.22;2.15;;;;;;;;;;4940938;29;20642;-73
2023/05/16 07:25:52;;;;;;;14.38;3.33;;;;;;;;;;4941604;29;20186;-73
2023/05/16 07:28:18;;;;;;;14.35;3.00;;;;;;;;;;4940644;29;20228;-73
2023/05/16 07:30:45;;;;;;;12.93;2.65;;;;;;;;;;4941418;29;20185;-74
2023/05/16 07:33:11;;;;;;;10.45;2.67;;;;;;;;;;4940739;29;20692;-73
2023/05/16 07:35:38;;;;;;;6.20;2.07;;;;;;;;;;4941439;29;20264;-74
2023/05/16 07:38:04;;;;;;;8.88;1.92;;;;;;;;;;4941118;29;20428;-74
2023/05/16 07:40:30;;;;;;;10.68;2.30;;;;;;;;;;4940784;29;20224;-73
2023/05/16 07:42:56;;;;;;;11.73;2.17;;;;;;;;;;4940681;29;20631;-73
2023/05/16 07:45:22;;;;;;;11.40;3.05;;;;;;;;;;4941024;29;20413;-73
2023/05/16 07:47:48;;;;;;;5.90;1.88;;;;;;;;;;4941170;29;20578;-74
2023/05/16 07:50:14;;;;;;;13.65;2.08;;;;;;;;;;4939929;29;20232;-73
2023/05/16 07:52:40;;;;;;;4.67;2.07;;;;;;;;;;4924010;29;20245;-74
2023/05/16 07:55:06;;;;;;;6.63;2.45;;;;;;;;;;4941502;29;20524;-74
2023/05/16 07:57:32;;;;;;;13.95;2.03;;;;;;;;;;4941069;29;20213;-74
2023/05/16 07:59:59;;;;;;;15.27;2.20;;;;;;;;;;4940511;29;20224;-74
2023/05/16 08:02:29;;;;;;;7.68;2.22;;;;;;;;;;4943556;29;20413;-74
2023/05/16 08:04:55;;;;;;;6.97;1.87;;;;;;;;;;4944872;29;20178;-74
2023/05/16 08:07:21;;;;;;;10.77;2.43;;;;;;;;;;4944032;29;20915;-74
2023/05/16 08:09:47;;;;;;;10.83;2.33;;;;;;;;;;4944101;29;20501;-74
2023/05/16 08:12:13;;;;;;;14.27;2.37;;;;;;;;;;4944788;29;20417;-74
2023/05/16 08:14:39;;;;;;;8.00;1.80;;;;;;;;;;4944653;29;20412;-74
2023/05/16 08:17:06;;;;;;;6.97;1.90;;;;;;;;;;4944322;29;20414;-74
2023/05/16 08:19:32;;;;;;;9.23;1.77;;;;;;;;;;4943768;29;20492;-74
2023/05/16 08:21:58;;;;;;;9.25;1.85;;;;;;;;;;4944088;29;20417;-74
2023/05/16 08:24:24;;;;;;;6.75;2.03;;;;;;;;;;4944561;29;20281;-74
2023/05/16 08:26:50;;;;;;;9.43;2.60;;;;;;;;;;4944610;29;20209;-73
2023/05/16 08:29:16;;;;;;;6.33;2.20;;;;;;;;;;4944066;29;20413;-74
2023/05/16 08:31:42;;;;;;;6.65;2.00;;;;;;;;;;4944154;29;20496;-74
2023/05/16 08:34:09;;;;;;;10.97;1.80;;;;;;;;;;4943970;29;20193;-74
2023/05/16 08:36:35;;;;;;;2.80;1.17;;;;;;;;;;4943937;29;20414;-74
2023/05/16 08:39:01;;;;;;;5.13;1.90;;;;;;;;;;4943785;29;20896;-73
2023/05/16 08:41:27;;;;;;;9.33;2.53;;;;;;;;;;4944187;29;20406;-74
2023/05/16 08:43:54;;;;;;;10.90;2.20;;;;;;;;;;4944156;29;20407;-74
2023/05/16 08:46:21;;;;;;;9.00;1.57;;;;;;;;;;4943857;29;20413;-74
2023/05/16 08:48:51;;;;;;;5.60;1.83;;;;;;;;;;4944297;29;20409;-74
2023/05/16 08:51:18;;;;;;;9.60;2.43;;;;;;;;;;4943153;29;20802;-74
2023/05/16 08:53:45;;;;;;;9.00;1.70;;;;;;;;;;4944092;29;20468;-73
2023/05/16 08:56:13;;;;;;;5.57;2.13;;;;;;;;;;4943844;29;20417;-72
2023/05/16 08:58:39;;;;;;;3.20;1.20;;;;;;;;;;4943419;29;20473;-74
2023/05/16 09:01:07;;;;;;;11.60;2.30;;;;;;;;;;4943407;29;20420;-77
2023/05/16 09:03:35;;;;;;;4.80;1.93;;;;;;;;;;4943535;29;20456;-74
2023/05/16 09:06:01;;;;;;;3.80;1.40;;;;;;;;;;4943881;29;20770;-74
2023/05/16 09:08:27;;;;;;;9.07;1.77;;;;;;;;;;4942692;29;20388;-73
2023/05/16 09:10:54;;;;;;;3.47;1.50;;;;;;;;;;4943174;29;20383;-74
2023/05/16 09:13:20;;;;;;;3.40;1.10;;;;;;;;;;4942505;29;20741;-74
2023/05/16 09:15:46;;;;;;;3.37;1.50;;;;;;;;;;4943008;29;20384;-74
2023/05/16 09:18:13;;;;;;;4.90;2.40;;;;;;;;;;4942417;29;20413;-74
2023/05/16 09:20:45;;;;;;;6.30;1.93;;;;;;;;;;4943004;29;20467;-74
2023/05/16 09:23:11;;;;;;;4.40;1.40;;;;;;;;;;4942744;29;20594;-74
2023/05/16 09:25:40;;;;;;;7.20;1.73;;;;;;;;;;4943188;29;20392;-74
2023/05/16 09:28:10;;;;;;;5.30;1.23;;;;;;;;;;4942679;29;20384;-74
2023/05/16 09:30:38;;;;;;;7.00;1.60;;;;;;;;;;4942865;29;20396;-74
2023/05/16 09:33:06;;;;;;;3.63;1.53;;;;;;;;;;4942361;29;20409;-74
2023/05/16 09:35:32;;;;;;;8.03;1.90;;;;;;;;;;4942184;29;20384;-74
2023/05/16 09:37:58;;;;;;;4.87;1.77;;;;;;;;;;4942172;29;20903;-74
2023/05/16 09:40:25;;;;;;;7.33;1.67;;;;;;;;;;4941395;29;20471;-74
2023/05/16 09:43:02;;;;;;;4.83;1.37;;;;;;;;;;4941315;29;20414;-72
2023/05/16 09:45:28;;;;;;;3.00;1.70;;;;;;;;;;4941045;29;20382;-72
2023/05/16 09:47:58;;;;;;;3.30;1.10;;;;;;;;;;4941370;29;20432;-71
2023/05/16 09:50:24;;;;;;;4.67;1.33;;;;;;;;;;4940261;29;20827;-72
2023/05/16 09:52:50;;;;;;;3.47;1.33;;;;;;;;;;4941663;29;20481;-74
2023/05/16 09:55:16;;;;;;;3.23;1.40;;;;;;;;;;4941580;29;20832;-74
2023/05/16 09:57:42;;;;;;;4.47;1.67;;;;;;;;;;4941060;29;20492;-74
2023/05/16 10:00:12;;;;;;;11.27;2.50;;;;;;;;;;4940795;29;20785;-77
2023/05/16 10:02:38;;;;;;;5.60;1.77;;;;;;;;;;4941057;29;20396;-74
2023/05/16 10:05:04;;;;;;;9.93;2.00;;;;;;;;;;4941097;29;20416;-73
2023/05/16 10:07:34;;;;;;;4.27;1.13;;;;;;;;;;4940459;29;20427;-74
2023/05/16 10:10:00;;;;;;;6.40;1.40;;;;;;;;;;4940778;29;20380;-74
2023/05/16 10:12:30;;;;;;;5.90;2.10;;;;;;;;;;4940767;29;20424;-73
2023/05/16 10:14:56;;;;;;;3.10;1.53;;;;;;;;;;4941201;29;20405;-73
2023/05/16 10:17:23;;;;;;;7.13;2.40;;;;;;;;;;4940679;29;20488;-74
2023/05/16 10:19:50;;;;;;;5.73;1.80;;;;;;;;;;4940377;29;20493;-74
2023/05/16 10:22:16;;;;;;;6.63;2.50;;;;;;;;;;4940765;29;20417;-74
2023/05/16 10:24:42;;;;;;;4.63;2.03;;;;;;;;;;4939800;29;20414;-74
2023/05/16 10:27:09;;;;;;;8.23;2.47;;;;;;;;;;4940567;29;20395;-74
2023/05/16 10:29:37;;;;;;;6.63;2.00;;;;;;;;;;4940656;29;20461;-74
2023/05/16 10:32:03;;;;;;;6.20;2.00;;;;;;;;;;4940897;29;20775;-73
2023/05/16 10:34:29;;;;;;;5.73;1.53;;;;;;;;;;4940686;29;20772;-73
2023/05/16 10:36:55;;;;;;;8.43;2.07;;;;;;;;;;4940768;29;20849;-73
2023/05/16 10:39:21;;;;;;;10.80;2.77;;;;;;;;;;4940615;29;20447;-74
2023/05/16 10:41:48;;;;;;;8.50;2.03;;;;;;;;;;4940531;29;20421;-73
2023/05/16 10:44:17;;;;;;;7.13;2.23;;;;;;;;;;4940559;29;20751;-74
2023/05/16 10:46:43;;;;;;;6.23;2.30;;;;;;;;;;4940156;29;20949;-74
2023/05/16 10:49:23;;;;;;;8.00;1.63;;;;;;;;;;4940778;29;20421;-73
2023/05/16 10:52:04;;;;;;;6.10;2.20;;;;;;;;;;4940614;29;20514;-74
2023/05/16 10:54:35;;;;;;;3.50;1.50;;;;;;;;;;4940511;29;20421;-73
2023/05/16 10:57:23;;;;;;;7.13;1.80;;;;;;;;;;4940166;29;20799;-73
2023/05/16 10:59:50;;;;;;;6.57;1.37;;;;;;;;;;4940316;29;20435;-74
2023/05/16 11:02:31;;;;;;;4.00;2.00;;;;;;;;;;4940286;29;20421;-74
2023/05/16 11:04:58;;;;;;;6.00;1.90;;;;;;;;;;4940296;29;20526;-74
2023/05/16 11:07:25;;;;;;;3.87;1.60;;;;;;;;;;4939898;29;20405;-74
2023/05/16 11:10:07;;;;;;;5.70;1.47;;;;;;;;;;4939545;29;20392;-73
2023/05/16 11:12:37;;;;;;;4.90;1.93;;;;;;;;;;4939852;29;20409;-74
2023/05/16 11:15:16;;;;;;;3.33;1.47;;;;;;;;;;4940160;29;20428;-73
2023/05/16 11:17:42;;;;;;;3.17;1.50;;;;;;;;;;4940408;29;20723;-73
2023/05/16 11:20:24;;;;;;;4.57;1.53;;;;;;;;;;4939585;29;20470;-73
2023/05/16 11:22:50;;;;;;;5.93;1.47;;;;;;;;;;4922779;29;20576;-73
2023/05/16 11:25:16;;;;;;;5.73;0.97;;;;;;;;;;4939647;29;20395;-74
2023/05/16 11:27:43;;;;;;;9.80;2.20;;;;;;;;;;4939941;29;20496;-74
2023/05/16 11:30:09;;;;;;;3.27;1.97;;;;;;;;;;4939944;29;20869;-74
2023/05/16 11:32:36;;;;;;;6.10;1.97;;;;;;;;;;4939439;29;20440;-74
2023/05/16 11:35:03;;;;;;;8.10;1.80;;;;;;;;;;4940189;29;20466;-74
2023/05/16 11:37:29;;;;;;;4.97;1.77;;;;;;;;;;4938936;29;20392;-74
2023/05/16 11:40:01;;;;;;;7.03;1.80;;;;;;;;;;4938965;29;20469;-73
2023/05/16 11:42:32;;;;;;;4.80;1.80;;;;;;;;;;4939335;29;20387;-74
2023/05/16 11:45:08;;;;;;;4.63;1.53;;;;;;;;;;4939479;29;20445;-74
2023/05/16 11:47:38;;;;;;;4.70;1.20;;;;;;;;;;4939502;29;20392;-74
2023/05/16 11:50:08;;;;;;;2.40;1.00;;;;;;;;;;4939368;29;20400;-74
2023/05/16 11:52:35;;;;;;;2.27;1.23;;;;;;;;;;4939237;29;20388;-74
2023/05/16 11:55:02;;;;;;;5.40;1.27;;;;;;;;;;4939611;29;20414;-74
2023/05/16 11:57:28;;;;;;;4.43;1.30;;;;;;;;;;4939403;29;20404;-74
2023/05/16 11:59:54;;;;;;;3.00;1.27;;;;;;;;;;4940004;29;20447;-74
2023/05/16 12:02:21;;;;;;;5.87;1.17;;;;;;;;;;4939118;29;20504;-74
2023/05/16 12:04:49;;;;;;;4.50;1.83;;;;;;;;;;4939183;29;20886;-74
2023/05/16 12:07:15;;;;;;;6.77;1.73;;;;;;;;;;4938950;29;20403;-74
2023/05/16 12:09:41;;;;;;;3.27;1.23;;;;;;;;;;4938997;29;20392;-74
2023/05/16 12:12:07;;;;;;;2.47;1.40;;;;;;;;;;4939676;29;20412;-74
2023/05/16 12:14:33;;;;;;;2.83;1.73;;;;;;;;;;4939120;29;20838;-74
2023/05/16 12:17:00;;;;;;;6.20;1.90;;;;;;;;;;4939226;29;20755;-74
2023/05/16 12:19:26;;;;;;;2.13;1.27;;;;;;;;;;4939356;29;20493;-74
2023/05/16 12:21:53;;;;;;;3.87;1.60;;;;;;;;;;4939261;29;20460;-74
2023/05/16 12:24:20;;;;;;;6.70;1.70;;;;;;;;;;4938943;29;20726;-74
2023/05/16 12:26:46;;;;;;;4.90;1.53;;;;;;;;;;4939256;29;20927;-74
2023/05/16 12:29:12;;;;;;;4.20;1.30;;;;;;;;;;4938935;29;20758;-73
2023/05/16 12:31:40;;;;;;;4.80;1.57;;;;;;;;;;4938771;29;20420;-73
2023/05/16 12:34:17;;;;;;;5.37;2.03;;;;;;;;;;4938715;29;20412;-74
2023/05/16 12:36:43;;;;;;;4.57;1.70;;;;;;;;;;4939513;29;20487;-73
2023/05/16 12:39:11;;;;;;;2.80;1.53;;;;;;;;;;4939419;29;20494;-73
2023/05/16 12:41:41;;;;;;;3.90;1.50;;;;;;;;;;4938821;29;20429;-74
2023/05/16 12:44:11;;;;;;;4.97;1.60;;;;;;;;;;4939009;29;20399;-73
2023/05/16 12:46:40;;;;;;;9.33;2.50;;;;;;;;;;4938938;29;20464;-74
2023/05/16 12:49:07;;;;;;;4.03;1.87;;;;;;;;;;4941047;29;20429;-74
2023/05/16 12:51:33;;;;;;;4.40;1.47;;;;;;;;;;4942322;29;20427;-74
2023/05/16 12:54:08;;;;;;;2.93;1.10;;;;;;;;;;4942345;29;20848;-74
2023/05/16 12:56:34;;;;;;;3.53;1.43;;;;;;;;;;4942362;29;20472;-74
2023/05/16 12:59:00;;;;;;;2.17;1.10;;;;;;;;;;4942520;29;20447;-74
2023/05/16 13:01:26;;;;;;;6.33;1.73;;;;;;;;;;4942486;29;20402;-74
2023/05/16 13:03:52;;;;;;;7.10;1.50;;;;;;;;;;4942618;29;20409;-74
2023/05/16 13:06:19;;;;;;;7.40;1.70;;;;;;;;;;4941847;29;20380;-73
2023/05/16 13:08:45;;;;;;;4.70;1.07;;;;;;;;;;4942221;29;20487;-74
2023/05/16 13:11:11;;;;;;;6.37;1.20;;;;;;;;;;4942573;29;20376;-74
2023/05/16 13:13:37;;;;;;;2.40;1.10;;;;;;;;;;4942278;29;20404;-74
2023/05/16 13:16:03;;;;;;;3.23;1.20;;;;;;;;;;4942354;29;20482;-74
2023/05/16 13:18:30;;;;;;;3.23;1.13;;;;;;;;;;4941781;29;20406;-74
2023/05/16 13:20:56;;;;;;;2.70;1.43;;;;;;;;;;4941954;29;20415;-74
2023/05/16 13:23:22;;;;;;;5.03;1.40;;;;;;;;;;4941548;29;20389;-75
2023/05/16 13:25:48;;;;;;;2.10;1.00;;;;;;;;;;4942142;29;20413;-73
2023/05/16 13:28:14;;;;;;;3.97;1.20;;;;;;;;;;4941323;29;20448;-74
2023/05/16 13:30:40;;;;;;;4.57;1.77;;;;;;;;;;4924902;29;20435;-73
2023/05/16 13:33:06;;;;;;;4.73;1.87;;;;;;;;;;4941375;29;20412;-74
2023/05/16 13:35:32;;;;;;;3.87;1.67;;;;;;;;;;4940843;29;20412;-73
2023/05/16 13:37:58;;;;;;;4.43;1.37;;;;;;;;;;4940362;29;20381;-74
2023/05/16 13:40:24;;;;;;;1.27;0.90;;;;;;;;;;4939637;29;20454;-74
2023/05/16 13:42:50;;;;;;;2.20;1.30;;;;;;;;;;4941563;29;20410;-74
2023/05/16 13:45:16;;;;;;;4.20;1.50;;;;;;;;;;4941330;29;20399;-74
2023/05/16 13:47:42;;;;;;;7.10;1.47;;;;;;;;;;4941616;29;20496;-74
2023/05/16 13:50:09;;;;;;;5.23;1.20;;;;;;;;;;4941261;29;20526;-74
2023/05/16 13:52:36;;;;;;;3.87;1.27;;;;;;;;;;4941261;29;20438;-74
2023/05/16 13:55:02;;;;;;;3.47;1.40;;;;;;;;;;4941596;29;20410;-74
2023/05/16 13:57:28;;;;;;;8.27;1.20;;;;;;;;;;4940993;29;20437;-74
2023/05/16 13:59:55;;;;;;;3.20;1.27;;;;;;;;;;4941148;29;20918;-74
2023/05/16 14:02:21;;;;;;;3.47;1.27;;;;;;;;;;4941025;29;20828;-73
2023/05/16 14:04:47;;;;;;;1.20;0.97;;;;;;;;;;4923940;29;20434;-74
2023/05/16 14:07:14;;;;;;;5.10;1.00;;;;;;;;;;4941522;29;20396;-73
2023/05/16 14:09:40;;;;;;;6.47;1.20;;;;;;;;;;4941035;29;20410;-74
2023/05/16 14:12:06;;;;;;;3.87;1.00;;;;;;;;;;4940689;29;20733;-74
2023/05/16 14:14:33;;;;;;;2.90;1.10;;;;;;;;;;4941000;29;20376;-74
2023/05/16 14:16:59;;;;;;;8.33;1.10;;;;;;;;;;4941017;29;20755;-74
2023/05/16 14:19:25;;;;;;;5.23;1.40;;;;;;;;;;4940752;29;20463;-75
2023/05/16 14:21:51;;;;;;;1.80;1.07;;;;;;;;;;4923314;29;20408;-73
2023/05/16 14:24:17;;;;;;;2.70;1.10;;;;;;;;;;4940879;29;20392;-74
2023/05/16 14:26:43;;;;;;;2.20;1.20;;;;;;;;;;4940557;29;20418;-73
2023/05/16 14:29:09;;;;;;;2.23;1.10;;;;;;;;;;4940457;29;20916;-73
2023/05/16 14:31:35;;;;;;;5.10;1.17;;;;;;;;;;4939770;29;20422;-73
2023/05/16 14:34:01;;;;;;;5.63;1.33;;;;;;;;;;4940392;29;20483;-73